Time;durP1;ratioP1;P1;durP2;ratioP2;P2;SDS_P1;SDS_P2;PMS_P1;PMS_P2;Temp;Humidity;BMP_temperature;BMP_pressure;BME280_temperature;BME280_humidity;BME280_pressure;Samples;Min_cycle;Max_cycle;Signal;HPM_P1;HPM_P2
2022/07/15 00:00:54;;;;;;;;;;;;;;;22.00;36.28;100126.91;1088513;54;19943;-82
2022/07/15 00:01:58;;;;;;;;;;;;;;;21.97;36.59;100128.19;1088525;54;19926;-82
2022/07/15 00:03:00;;;;;;;;;;;;;;;22.02;36.27;100126.69;1088574;54;20542;-82
2022/07/15 00:04:04;;;;;;;;;;;;;;;22.04;36.12;100130.88;1088573;54;20563;-81
2022/07/15 00:05:09;;;;;;;;;;;;;;;22.09;36.27;100124.78;1089837;46;19927;-81
2022/07/15 00:06:13;;;;;;;;;;;;;;;21.92;36.46;100128.00;1088546;54;19926;-81
2022/07/15 00:07:14;;;;;;;;;;;;;;;21.88;36.71;100126.78;1088521;54;19983;-83
2022/07/15 00:08:18;;;;;;;;;;;;;;;21.89;36.48;100127.59;1090278;46;19943;-81
2022/07/15 00:09:19;;;;;;;;;;;;;;;21.86;36.59;100126.16;1088502;54;19954;-84
2022/07/15 00:10:23;;;;;;;;;;;;;;;21.91;36.35;100123.63;1088529;54;19927;-83
2022/07/15 00:11:24;;;;;;;;;;;;;;;21.95;36.49;100130.28;1088455;54;19927;-81
2022/07/15 00:12:28;;;;;;;;;;;;;;;21.97;36.21;100127.34;1088555;54;20546;-83
2022/07/15 00:13:30;;;;;;;;;;;;;;;21.96;36.63;100120.25;1088505;54;19943;-84
2022/07/15 00:14:34;;;;;;;;;;;;;;;21.96;36.29;100120.25;1088216;54;19989;-85
2022/07/15 00:15:36;;;;;;;;;;;;;;;21.96;36.33;100121.06;1088185;54;19969;-83
2022/07/15 00:16:39;;;;;;;;;;;;;;;21.98;36.30;100123.56;1089324;39;20545;-82
2022/07/15 00:17:41;;;;;;;;;;;;;;;21.96;36.37;100126.50;1088601;54;19933;-83
2022/07/15 00:18:46;;;;;;;;;;;;;;;21.96;36.25;100122.97;1088558;54;19939;-82
2022/07/15 00:19:47;;;;;;;;;;;;;;;21.92;36.40;100124.44;1088570;54;19954;-82
2022/07/15 00:20:53;;;;;;;;;;;;;;;21.89;36.28;100131.16;1088588;54;19942;-82
2022/07/15 00:21:54;;;;;;;;;;;;;;;21.90;36.46;100126.53;1088500;54;19933;-82
2022/07/15 00:22:58;;;;;;;;;;;;;;;21.90;36.62;100127.41;1088590;54;19942;-81
2022/07/15 00:24:00;;;;;;;;;;;;;;;21.83;36.88;100136.63;1088558;54;19954;-82
2022/07/15 00:25:03;;;;;;;;;;;;;;;21.83;36.53;100132.00;1088568;54;19927;-82
2022/07/15 00:26:05;;;;;;;;;;;;;;;21.85;36.54;100131.81;1089671;46;20539;-81
2022/07/15 00:27:09;;;;;;;;;;;;;;;21.83;36.77;100129.28;1088502;54;19948;-81
2022/07/15 00:28:10;;;;;;;;;;;;;;;21.82;36.87;100135.81;1088550;54;19954;-82
2022/07/15 00:29:14;;;;;;;;;;;;;;;21.77;37.17;100128.28;1088522;54;19938;-83
2022/07/15 00:30:15;;;;;;;;;;;;;;;21.77;37.25;100131.00;1091622;39;20486;-82
2022/07/15 00:31:18;;;;;;;;;;;;;;;21.73;37.52;100134.38;1088370;54;19939;-83
2022/07/15 00:32:20;;;;;;;;;;;;;;;21.75;37.18;100129.53;1088110;54;19942;-83
2022/07/15 00:33:24;;;;;;;;;;;;;;;21.68;37.98;100135.00;1088138;54;20023;-82
2022/07/15 00:34:25;;;;;;;;;;;;;;;21.68;37.88;100134.19;1088503;54;19927;-81
2022/07/15 00:35:29;;;;;;;;;;;;;;;21.64;38.31;100129.16;1088559;54;19942;-81
2022/07/15 00:36:33;;;;;;;;;;;;;;;21.65;37.85;100138.19;1088501;54;19955;-81
2022/07/15 00:37:37;;;;;;;;;;;;;;;21.64;38.15;100129.16;1088537;54;20008;-82
2022/07/15 00:38:38;;;;;;;;;;;;;;;21.60;38.00;100127.94;1088512;46;20859;-82
2022/07/15 00:39:42;;;;;;;;;;;;;;;21.62;38.26;100130.44;1088509;54;19927;-81
2022/07/15 00:40:44;;;;;;;;;;;;;;;21.61;38.54;100131.50;1088530;54;19938;-83
2022/07/15 00:41:48;;;;;;;;;;;;;;;21.57;38.68;100130.25;1088405;54;19933;-83
2022/07/15 00:42:49;;;;;;;;;;;;;;;21.53;38.74;100124.41;1088371;54;20630;-82
2022/07/15 00:43:53;;;;;;;;;;;;;;;21.50;38.92;100122.91;1088514;54;19954;-81
2022/07/15 00:44:54;;;;;;;;;;;;;;;21.50;38.83;100132.97;1088479;54;19942;-82
2022/07/15 00:45:58;;;;;;;;;;;;;;;21.42;39.66;100125.06;1088546;54;19934;-82
2022/07/15 00:47:00;;;;;;;;;;;;;;;21.41;39.64;100134.25;1088428;54;19935;-81
2022/07/15 00:48:03;;;;;;;;;;;;;;;21.40;39.59;100132.59;1088537;54;19942;-81
2022/07/15 00:49:06;;;;;;;;;;;;;;;21.38;39.54;100137.41;1088163;54;19943;-84
2022/07/15 00:50:12;;;;;;;;;;;;;;;21.32;40.07;100134.50;1088037;54;19994;-83
2022/07/15 00:52:22;;;;;;;;;;;;;;;21.33;39.73;100129.88;1088466;54;19933;-82
2022/07/15 00:53:26;;;;;;;;;;;;;;;21.22;40.77;100139.53;1088634;54;19942;-83
2022/07/15 00:54:30;;;;;;;;;;;;;;;21.22;40.39;100134.13;1088479;54;19950;-85
2022/07/15 00:55:32;;;;;;;;;;;;;;;21.22;40.18;100128.69;1088601;54;19926;-84
2022/07/15 00:56:38;;;;;;;;;;;;;;;21.21;40.29;100137.06;1088558;54;19939;-83
2022/07/15 00:57:41;;;;;;;;;;;;;;;21.19;40.54;100131.81;1088514;54;19983;-83
2022/07/15 00:58:46;;;;;;;;;;;;;;;21.21;40.02;100134.34;1088669;47;19927;-84
2022/07/15 00:59:47;;;;;;;;;;;;;;;21.19;40.25;100132.66;1088572;54;19943;-84
2022/07/15 01:00:52;;;;;;;;;;;;;;;21.22;40.02;100138.69;1088599;54;19934;-83
2022/07/15 01:01:54;;;;;;;;;;;;;;;21.21;40.32;100137.06;1088629;54;19927;-83
2022/07/15 01:04:01;;;;;;;;;;;;;;;21.16;40.14;100132.25;1088492;54;19950;-83
2022/07/15 01:05:03;;;;;;;;;;;;;;;21.15;40.28;100133.28;1088570;54;19950;-83
2022/07/15 01:06:07;;;;;;;;;;;;;;;21.10;40.90;100135.81;1090132;39;20455;-84
2022/07/15 01:07:09;;;;;;;;;;;;;;;21.08;40.48;100137.88;1088472;54;19927;-84
2022/07/15 01:08:17;;;;;;;;;;;;;;;21.06;40.53;100129.97;1088366;54;19939;-84
2022/07/15 01:09:19;;;;;;;;;;;;;;;21.04;40.54;100135.63;1088406;54;19927;-84
2022/07/15 01:10:24;;;;;;;;;;;;;;;21.03;40.66;100133.09;1088109;54;19949;-84
2022/07/15 01:11:26;;;;;;;;;;;;;;;21.01;40.89;100127.06;1088152;54;19974;-85
2022/07/15 01:12:29;;;;;;;;;;;;;;;20.96;40.95;100126.84;1088128;54;20206;-84
2022/07/15 01:13:31;;;;;;;;;;;;;;;20.95;40.86;100131.44;1088769;46;19939;-82
2022/07/15 01:14:35;;;;;;;;;;;;;;;20.95;40.90;100128.72;1088031;54;20645;-84
2022/07/15 01:15:36;;;;;;;;;;;;;;;20.94;41.24;100128.94;1088146;54;19943;-82
2022/07/15 01:16:40;;;;;;;;;;;;;;;20.93;40.89;100130.81;1088298;46;19946;-82
2022/07/15 01:17:43;;;;;;;;;;;;;;;20.92;40.97;100134.59;1088473;54;20002;-84
2022/07/15 01:18:47;;;;;;;;;;;;;;;20.91;40.71;100129.38;1088534;54;19990;-83
2022/07/15 01:19:49;;;;;;;;;;;;;;;20.87;41.09;100131.69;1088495;54;19934;-84
2022/07/15 01:20:55;;;;;;;;;;;;;;;20.82;41.39;100137.75;1088529;54;20003;-85
2022/07/15 01:21:56;;;;;;;;;;;;;;;20.75;41.73;100130.63;1088594;54;19934;-84
2022/07/15 01:23:01;;;;;;;;;;;;;;;20.72;41.41;100126.44;1088606;54;20001;-84
2022/07/15 01:24:02;;;;;;;;;;;;;;;20.73;41.15;100137.09;1088708;54;20206;-83
2022/07/15 01:25:06;;;;;;;;;;;;;;;20.59;41.65;100132.69;1090057;46;19939;-84
2022/07/15 01:26:08;;;;;;;;;;;;;;;20.53;41.94;100136.22;1088606;54;20567;-82
2022/07/15 01:27:12;;;;;;;;;;;;;;;20.48;42.09;100142.28;1088607;54;19998;-84
2022/07/15 01:28:13;;;;;;;;;;;;;;;20.44;42.03;100137.47;1089640;46;19938;-84
2022/07/15 01:29:18;;;;;;;;;;;;;;;20.43;41.75;100142.09;1088586;54;19990;-85
2022/07/15 01:30:19;;;;;;;;;;;;;;;20.47;41.81;100137.06;1089467;46;19923;-83
2022/07/15 01:31:23;;;;;;;;;;;;;;;20.49;41.53;100138.53;1088641;46;19961;-84
2022/07/15 01:32:24;;;;;;;;;;;;;;;20.51;41.81;100135.59;1088064;54;19943;-84
2022/07/15 01:33:29;;;;;;;;;;;;;;;20.53;41.51;100133.50;1088352;54;19938;-85
2022/07/15 01:34:31;;;;;;;;;;;;;;;20.55;41.67;100142.28;1088400;54;19942;-83
2022/07/15 01:35:35;;;;;;;;;;;;;;;20.52;41.52;100132.69;1088556;54;19942;-84
2022/07/15 01:36:38;;;;;;;;;;;;;;;20.52;41.54;100142.69;1092021;39;20502;-84
2022/07/15 01:37:43;;;;;;;;;;;;;;;20.46;42.03;100140.81;1088505;54;20014;-85
2022/07/15 01:38:45;;;;;;;;;;;;;;;20.48;42.02;100136.84;1088591;47;19942;-82
2022/07/15 01:39:48;;;;;;;;;;;;;;;20.44;43.02;100140.19;1088641;54;19983;-84
2022/07/15 01:41:55;;;;;;;;;;;;;;;20.36;42.93;100149.38;1088527;54;19935;-85
2022/07/15 01:45:06;;;;;;;;;;;;;;;20.24;43.07;100141.00;1088585;54;19945;-84
2022/07/15 01:51:47;;;;;;;;;;;;;;;20.07;43.79;100141.41;1085022;54;19961;31
2022/07/15 01:57:04;;;;;;;;;;;;;;;19.82;44.89;100132.94;1088570;54;19946;-84
2022/07/15 01:59:11;;;;;;;;;;;;;;;19.76;45.19;100134.59;1088315;54;19930;-85
2022/07/15 02:00:16;;;;;;;;;;;;;;;19.72;45.20;100137.91;1088454;54;19927;-84
2022/07/15 02:01:19;;;;;;;;;;;;;;;19.63;45.61;100132.66;1088362;54;19942;-85
2022/07/15 02:02:21;;;;;;;;;;;;;;;19.59;45.10;100134.13;1094024;39;20782;-86
2022/07/15 02:03:24;;;;;;;;;;;;;;;19.50;45.59;100138.03;1088459;54;19927;-83
2022/07/15 02:04:26;;;;;;;;;;;;;;;19.40;46.17;100132.97;1088376;54;19950;-82
2022/07/15 02:05:30;;;;;;;;;;;;;;;19.37;45.89;100137.97;1088367;54;19938;-82
2022/07/15 02:06:31;;;;;;;;;;;;;;;19.30;46.57;100140.63;1085590;54;19969;-74
2022/07/15 02:07:38;;;;;;;;;;;;;;;19.29;46.40;100133.53;1082881;54;20519;-75
2022/07/15 02:08:39;;;;;;;;;;;;;;;19.24;46.44;100136.84;1082738;54;19964;-75
2022/07/15 02:09:43;;;;;;;;;;;;;;;19.23;46.40;100129.75;1083423;54;19939;-75
2022/07/15 02:10:45;;;;;;;;;;;;;;;19.22;46.47;100135.38;1083481;54;19946;-75
2022/07/15 02:11:58;;;;;;;;;;;;;;;19.21;46.62;100131.84;1083284;54;19954;-74
2022/07/15 02:13:03;;;;;;;;;;;;;;;19.21;46.26;100136.41;1082738;54;19946;-76
2022/07/15 02:14:14;;;;;;;;;;;;;;;19.20;46.42;100140.16;1083246;54;19950;-74
2022/07/15 02:15:16;;;;;;;;;;;;;;;19.16;46.88;100137.88;1082599;54;19939;-72
2022/07/15 02:16:20;;;;;;;;;;;;;;;19.12;46.96;100144.72;1083208;54;19989;-74
2022/07/15 02:17:21;;;;;;;;;;;;;;;19.10;47.02;100144.06;1083730;54;19969;-74
2022/07/15 02:18:25;;;;;;;;;;;;;;;19.01;47.55;100142.53;1083463;54;19985;-73
2022/07/15 02:19:26;;;;;;;;;;;;;;;19.00;47.45;100135.44;1083664;54;19954;-72
2022/07/15 02:20:30;;;;;;;;;;;;;;;18.91;48.15;100144.72;1083261;54;19954;-73
2022/07/15 02:21:31;;;;;;;;;;;;;;;18.94;47.21;100136.25;1083528;54;19953;-73
2022/07/15 02:22:38;;;;;;;;;;;;;;;18.92;47.41;100133.72;1083871;54;20409;-73
2022/07/15 02:23:39;;;;;;;;;;;;;;;18.94;47.10;100138.97;1083603;54;19946;-73
2022/07/15 02:24:42;;;;;;;;;;;;;;;18.92;47.20;100132.88;1083566;54;19977;-73
2022/07/15 02:25:43;;;;;;;;;;;;;;;18.89;47.37;100141.41;1083325;54;19969;-73
2022/07/15 02:26:48;;;;;;;;;;;;;;;18.88;47.33;100137.03;1083042;54;19951;-73
2022/07/15 02:27:52;;;;;;;;;;;;;;;18.86;47.41;100135.34;1083799;54;19970;-73
2022/07/15 02:28:56;;;;;;;;;;;;;;;18.81;48.17;100140.50;1083915;54;19993;-73
2022/07/15 02:29:57;;;;;;;;;;;;;;;18.81;47.79;100137.78;1083557;54;19942;-73
2022/07/15 02:31:01;;;;;;;;;;;;;;;18.78;48.05;100143.63;1083878;54;20525;-73
2022/07/15 02:32:02;;;;;;;;;;;;;;;18.75;48.33;100146.72;1083672;47;19951;-74
2022/07/15 02:33:06;;;;;;;;;;;;;;;18.66;48.81;100146.00;1083673;54;19946;-74
2022/07/15 02:34:07;;;;;;;;;;;;;;;18.67;48.32;100152.25;1084358;39;20380;-74
2022/07/15 02:35:11;;;;;;;;;;;;;;;18.69;48.27;100152.91;1083797;54;20042;-75
2022/07/15 02:36:12;;;;;;;;;;;;;;;18.62;49.08;100149.28;1083921;54;19954;-73
2022/07/15 02:37:16;;;;;;;;;;;;;;;18.63;48.68;100150.97;1083892;54;19947;-73
2022/07/15 02:38:22;;;;;;;;;;;;;;;18.64;48.50;100152.66;1084134;54;19939;-74
2022/07/15 02:39:25;;;;;;;;;;;;;;;18.62;49.02;100154.72;1084102;54;19950;-75
2022/07/15 02:40:27;;;;;;;;;;;;;;;18.64;48.50;100155.34;1084092;54;19947;-73
2022/07/15 02:41:31;;;;;;;;;;;;;;;18.60;48.83;100156.78;1083581;54;19956;-74
2022/07/15 02:42:32;;;;;;;;;;;;;;;18.59;48.68;100152.41;1084025;54;19946;-73
2022/07/15 02:43:36;;;;;;;;;;;;;;;18.60;48.61;100154.09;1083678;54;19970;-74
2022/07/15 02:44:40;;;;;;;;;;;;;;;18.58;48.95;100153.44;1082981;54;19977;-73
2022/07/15 02:45:41;;;;;;;;;;;;;;;18.54;48.85;100159.22;1083357;54;19962;-73
2022/07/15 02:46:45;;;;;;;;;;;;;;;18.50;49.16;100162.53;1083920;54;19951;-74
2022/07/15 02:47:47;;;;;;;;;;;;;;;18.50;48.82;100157.97;1084103;54;19970;-74
2022/07/15 02:48:50;;;;;;;;;;;;;;;18.52;49.34;100155.88;1084207;54;19950;-74
2022/07/15 02:49:51;;;;;;;;;;;;;;;18.49;49.23;100153.56;1083796;54;20669;-73
2022/07/15 02:50:55;;;;;;;;;;;;;;;18.45;48.99;100157.69;1084604;39;20428;-73
2022/07/15 02:51:56;;;;;;;;;;;;;;;18.45;49.23;100171.22;1083598;54;20755;-74
2022/07/15 02:53:00;;;;;;;;;;;;;;;18.45;49.36;100163.09;1083847;54;19965;-73
2022/07/15 02:54:04;;;;;;;;;;;;;;;18.41;49.50;100164.53;1083836;54;20055;-73
2022/07/15 02:55:08;;;;;;;;;;;;;;;18.38;49.48;100164.91;1083514;54;19947;-73
2022/07/15 02:56:09;;;;;;;;;;;;;;;18.31;50.16;100174.84;1083738;54;19947;-74
2022/07/15 02:57:13;;;;;;;;;;;;;;;18.29;50.11;100171.47;1083876;54;19945;-73
2022/07/15 02:58:14;;;;;;;;;;;;;;;18.21;50.36;100165.19;1083657;54;19958;-73
2022/07/15 02:59:18;;;;;;;;;;;;;;;18.16;50.77;100173.00;1083714;54;19947;-74
2022/07/15 03:00:19;;;;;;;;;;;;;;;18.14;50.47;100163.41;1083612;54;19977;-74
2022/07/15 03:01:23;;;;;;;;;;;;;;;18.13;50.49;100165.31;1083069;54;19962;-74
2022/07/15 03:02:24;;;;;;;;;;;;;;;18.10;50.54;100165.66;1083346;54;19973;-73
2022/07/15 03:03:28;;;;;;;;;;;;;;;18.14;50.49;100171.53;1083306;54;19947;-74
2022/07/15 03:04:29;;;;;;;;;;;;;;;18.17;50.38;100166.56;1084254;39;20626;-73
2022/07/15 03:05:33;;;;;;;;;;;;;;;18.16;50.57;100161.38;1083586;54;19994;-73
2022/07/15 03:06:36;;;;;;;;;;;;;;;18.11;50.51;100161.94;1084435;31;20429;-74
2022/07/15 03:07:38;;;;;;;;;;;;;;;18.10;50.79;100168.38;1084518;39;20365;-73
2022/07/15 03:08:41;;;;;;;;;;;;;;;18.13;50.11;100168.00;1084012;39;20714;-74
2022/07/15 03:09:45;;;;;;;;;;;;;;;18.08;50.55;100167.72;1084269;39;20317;-73
2022/07/15 03:10:49;;;;;;;;;;;;;;;18.07;50.66;100164.19;1083992;54;19962;-73
2022/07/15 03:11:50;;;;;;;;;;;;;;;18.11;50.33;100166.50;1083645;54;19969;-74
2022/07/15 03:12:53;;;;;;;;;;;;;;;18.00;50.86;100174.06;1083919;54;19950;-74
2022/07/15 03:13:55;;;;;;;;;;;;;;;17.98;50.82;100172.59;1083756;54;19966;-73
2022/07/15 03:14:58;;;;;;;;;;;;;;;17.95;51.16;100175.69;1083733;54;19951;-73
2022/07/15 03:15:59;;;;;;;;;;;;;;;17.95;50.65;100175.69;1083688;54;19974;-75
2022/07/15 03:17:03;;;;;;;;;;;;;;;17.93;51.01;100171.28;1083589;54;19946;-74
2022/07/15 03:18:07;;;;;;;;;;;;;;;17.94;50.88;100169.41;1083327;54;19946;-73
2022/07/15 03:19:08;;;;;;;;;;;;;;;17.95;50.49;100176.50;1083127;54;19947;-74
2022/07/15 03:20:13;;;;;;;;;;;;;;;17.92;50.67;100183.13;1083309;54;19946;-74
2022/07/15 03:21:14;;;;;;;;;;;;;;;17.94;50.82;100182.94;1084447;54;19946;-76
2022/07/15 03:22:18;;;;;;;;;;;;;;;17.95;50.55;100175.69;1084447;54;19939;-73
2022/07/15 03:23:19;;;;;;;;;;;;;;;17.95;50.49;100176.50;1083881;54;19962;-74
2022/07/15 03:24:22;;;;;;;;;;;;;;;17.98;50.61;100183.41;1083890;54;20006;-74
2022/07/15 03:25:26;;;;;;;;;;;;;;;17.99;50.59;100177.84;1083630;54;19946;-73
2022/07/15 03:26:30;;;;;;;;;;;;;;;17.97;51.02;100176.31;1083965;54;19962;-74
2022/07/15 03:27:31;;;;;;;;;;;;;;;17.98;51.03;100183.41;1084124;54;20455;-73
2022/07/15 03:28:35;;;;;;;;;;;;;;;17.96;50.57;100185.44;1084027;54;20433;-74
2022/07/15 03:29:36;;;;;;;;;;;;;;;17.91;51.38;100183.31;1083850;54;19951;-73
2022/07/15 03:30:40;;;;;;;;;;;;;;;17.90;50.76;100185.19;1083642;54;19958;-73
2022/07/15 03:31:41;;;;;;;;;;;;;;;17.92;51.05;100182.28;1083610;54;19954;-73
2022/07/15 03:32:44;;;;;;;;;;;;;;;17.92;51.00;100193.09;1084454;39;20365;-74
2022/07/15 03:33:46;;;;;;;;;;;;;;;17.88;50.97;100184.53;1083521;54;19972;-74
2022/07/15 03:34:50;;;;;;;;;;;;;;;17.91;50.92;100186.84;1084242;54;19947;-74
2022/07/15 03:35:51;;;;;;;;;;;;;;;17.86;51.20;100189.28;1085943;39;20280;-75
2022/07/15 03:36:55;;;;;;;;;;;;;;;17.87;50.96;100188.25;1084307;39;20345;-77
2022/07/15 03:37:56;;;;;;;;;;;;;;;17.85;50.97;100198.44;1083785;54;19947;-74
2022/07/15 03:39:00;;;;;;;;;;;;;;;17.83;50.90;100194.22;1084719;39;20298;-75
2022/07/15 03:40:01;;;;;;;;;;;;;;;17.79;50.95;100193.78;1085779;39;20337;-76
2022/07/15 03:41:08;;;;;;;;;;;;;;;17.81;50.92;100191.72;1084287;54;20002;-76
2022/07/15 03:42:09;;;;;;;;;;;;;;;17.78;51.25;100192.09;1084676;54;19950;-73
2022/07/15 03:43:13;;;;;;;;;;;;;;;17.69;51.38;100199.47;1086666;39;20336;-73
2022/07/15 03:44:14;;;;;;;;;;;;;;;17.67;51.88;100190.72;1084203;54;20433;-74
2022/07/15 03:45:18;;;;;;;;;;;;;;;17.70;51.75;100192.19;1085066;54;19954;-76
2022/07/15 03:46:19;;;;;;;;;;;;;;;17.70;51.49;100190.34;1085151;47;19950;-76
2022/07/15 03:47:23;;;;;;;;;;;;;;;17.72;51.49;100196.38;1084343;54;19954;-75
2022/07/15 03:48:24;;;;;;;;;;;;;;;17.72;51.26;100201.78;1085125;54;19981;-78
2022/07/15 03:49:28;;;;;;;;;;;;;;;17.69;51.66;100193.22;1086364;54;19970;-77
2022/07/15 03:50:29;;;;;;;;;;;;;;;17.68;51.56;100196.94;1085915;54;19954;-76
2022/07/15 03:51:33;;;;;;;;;;;;;;;17.69;51.40;100194.06;1085987;54;19946;-76
2022/07/15 03:52:34;;;;;;;;;;;;;;;17.64;51.85;100196.50;1086577;39;20364;-76
2022/07/15 03:53:38;;;;;;;;;;;;;;;17.67;51.37;100197.97;1085328;54;19950;-75
2022/07/15 03:54:39;;;;;;;;;;;;;;;17.67;51.64;100190.72;1085313;54;19947;-76
2022/07/15 03:55:42;;;;;;;;;;;;;;;17.68;51.29;100196.94;1085862;54;20445;-77
2022/07/15 03:56:47;;;;;;;;;;;;;;;17.69;51.59;100193.22;1087149;54;19954;-77
2022/07/15 03:57:51;;;;;;;;;;;;;;;17.69;51.48;100194.06;1086496;54;20062;-77
2022/07/15 03:58:53;;;;;;;;;;;;;;;17.67;51.87;100193.41;1088138;54;19923;-88
2022/07/15 03:59:57;;;;;;;;;;;;;;;17.68;52.16;100194.25;1088024;54;19939;-85
2022/07/15 04:00:58;;;;;;;;;;;;;;;17.68;51.81;100196.94;1093439;47;19938;-84
2022/07/15 04:02:02;;;;;;;;;;;;;;;17.64;51.95;100201.91;1088247;54;20543;-84
2022/07/15 04:03:03;;;;;;;;;;;;;;;17.69;52.02;100198.63;1088419;54;19938;-84
2022/07/15 04:04:08;;;;;;;;;;;;;;;17.70;51.95;100195.75;1088337;54;19942;-84
2022/07/15 04:05:09;;;;;;;;;;;;;;;17.71;51.69;100197.41;1088274;54;19942;-85
2022/07/15 04:06:13;;;;;;;;;;;;;;;17.67;52.34;100200.69;1088340;54;19986;-84
2022/07/15 04:07:14;;;;;;;;;;;;;;;17.69;51.94;100194.06;1088642;47;19958;-83
2022/07/15 04:08:18;;;;;;;;;;;;;;;17.71;51.93;100196.59;1088099;54;19935;-83
2022/07/15 04:09:19;;;;;;;;;;;;;;;17.71;51.91;100192.00;1088460;54;19935;-86
2022/07/15 04:10:23;;;;;;;;;;;;;;;17.76;51.37;100194.13;1088951;47;19926;-84
2022/07/15 04:11:24;;;;;;;;;;;;;;;17.79;52.00;100199.19;1088205;54;19952;-84
2022/07/15 04:12:31;;;;;;;;;;;;;;;17.76;52.21;100203.09;1088190;54;19943;-85
2022/07/15 04:13:32;;;;;;;;;;;;;;;17.72;52.83;100209.06;1088227;54;19979;-86
2022/07/15 04:14:38;;;;;;;;;;;;;;;17.64;52.89;100201.91;1088248;54;19978;-85
2022/07/15 04:15:39;;;;;;;;;;;;;;;17.60;53.02;100204.13;1088229;54;19942;-86
2022/07/15 04:16:43;;;;;;;;;;;;;;;17.68;52.47;100196.94;1088307;54;19927;-86
2022/07/15 04:17:44;;;;;;;;;;;;;;;17.75;52.25;100203.31;1088296;54;20060;-85
2022/07/15 04:18:58;;;;;;;;;;;;;;;17.76;52.20;100202.25;1091587;46;19954;-84
2022/07/15 04:19:59;;;;;;;;;;;;;;;17.77;52.50;100195.81;1088530;54;20725;-84
2022/07/15 04:21:16;;;;;;;;;;;;;;;17.81;51.89;100199.84;1088563;54;19927;-84
2022/07/15 04:22:20;;;;;;;;;;;;;;;17.85;51.71;100197.59;1088433;54;20555;-84
2022/07/15 04:23:21;;;;;;;;;;;;;;;17.87;51.64;100198.25;1088367;54;19951;-86
2022/07/15 04:24:25;;;;;;;;;;;;;;;17.80;52.52;100200.84;1088399;54;19942;-85
2022/07/15 04:25:27;;;;;;;;;;;;;;;17.77;52.62;100198.53;1088655;54;19958;-85
2022/07/15 04:26:31;;;;;;;;;;;;;;;17.62;53.92;100206.63;1088670;54;20039;-83
2022/07/15 04:27:35;;;;;;;;;;;;;;;17.58;54.17;100206.19;1088599;54;19927;-85
2022/07/15 04:28:39;;;;;;;;;;;;;;;17.55;53.73;100203.88;1088588;54;19935;-86
2022/07/15 04:29:40;;;;;;;;;;;;;;;17.58;53.54;100203.47;1088676;54;19939;-85
2022/07/15 04:30:44;;;;;;;;;;;;;;;17.58;53.33;100208.88;1088578;54;19954;-85
2022/07/15 04:31:45;;;;;;;;;;;;;;;17.59;53.26;100204.34;1088600;54;19922;-86
2022/07/15 04:32:49;;;;;;;;;;;;;;;17.61;53.03;100203.13;1088666;54;19927;-85
2022/07/15 04:33:50;;;;;;;;;;;;;;;17.66;52.87;100204.44;1088514;54;19927;-86
2022/07/15 04:34:54;;;;;;;;;;;;;;;17.66;52.76;100205.25;1088650;54;19995;-85
2022/07/15 04:35:56;;;;;;;;;;;;;;;17.68;52.72;100205.06;1088522;54;19942;-85
2022/07/15 04:37:00;;;;;;;;;;;;;;;17.69;52.40;100202.19;1088554;54;20007;-84
2022/07/15 04:38:01;;;;;;;;;;;;;;;17.72;52.49;100199.09;1089590;46;19942;-83
2022/07/15 04:39:05;;;;;;;;;;;;;;;17.75;52.28;100200.59;1088575;54;19942;-84
2022/07/15 04:40:09;;;;;;;;;;;;;;;17.77;52.25;100198.53;1088421;54;19986;-86
2022/07/15 04:41:13;;;;;;;;;;;;;;;17.76;52.26;100199.53;1088260;54;19955;-86
2022/07/15 04:42:14;;;;;;;;;;;;;;;17.81;51.93;100201.69;1088337;54;19943;-84
2022/07/15 04:43:20;;;;;;;;;;;;;;;17.83;52.19;100194.22;1088650;54;19979;-85
2022/07/15 04:44:22;;;;;;;;;;;;;;;17.80;52.09;100198.16;1088615;54;19934;-85
2022/07/15 04:45:26;;;;;;;;;;;;;;;17.83;52.04;100200.50;1088706;54;19923;-85
2022/07/15 04:46:27;;;;;;;;;;;;;;;17.83;51.90;100200.50;1088578;54;20602;-84
2022/07/15 04:47:31;;;;;;;;;;;;;;;17.82;52.07;100204.22;1088573;54;19952;-85
2022/07/15 04:51:04;;;;;;;;;;;;;;;17.75;52.62;100197.91;1088625;54;20034;-82
2022/07/15 04:52:08;;;;;;;;;;;;;;;17.69;53.25;100201.34;1088507;54;19957;-83
2022/07/15 04:53:09;;;;;;;;;;;;;;;17.59;53.77;100207.88;1088614;54;19935;-84
2022/07/15 04:54:13;;;;;;;;;;;;;;;17.44;53.56;100201.63;1088630;54;19926;-83
2022/07/15 04:55:14;;;;;;;;;;;;;;;17.30;54.58;100201.41;1088686;54;19922;-84
2022/07/15 04:56:18;;;;;;;;;;;;;;;17.22;54.81;100209.63;1088539;54;19982;-86
2022/07/15 04:57:20;;;;;;;;;;;;;;;17.17;54.54;100201.25;1088390;54;19942;-86
2022/07/15 04:58:26;;;;;;;;;;;;;;;17.25;54.13;100206.56;1088262;54;19990;-88
2022/07/15 04:59:27;;;;;;;;;;;;;;;17.21;54.62;100212.50;1088776;46;19978;-86
2022/07/15 05:00:31;;;;;;;;;;;;;;;17.13;54.52;100208.88;1088408;54;19947;-85
2022/07/15 05:01:35;;;;;;;;;;;;;;;17.12;54.81;100204.50;1088452;54;19946;-83
2022/07/15 05:02:38;;;;;;;;;;;;;;;17.16;54.84;100210.38;1089053;46;19918;-83
2022/07/15 05:03:42;;;;;;;;;;;;;;;17.21;54.86;100212.50;1090626;46;19923;-84
2022/07/15 05:04:43;;;;;;;;;;;;;;;17.16;55.07;100213.06;1088640;54;19935;-86
2022/07/15 05:05:47;;;;;;;;;;;;;;;17.09;54.93;100209.44;1088501;54;19935;-84
2022/07/15 05:06:51;;;;;;;;;;;;;;;17.14;54.64;100212.41;1088882;46;19995;-87
2022/07/15 05:07:52;;;;;;;;;;;;;;;17.20;54.36;100222.47;1088607;54;19927;-84
2022/07/15 05:08:56;;;;;;;;;;;;;;;17.15;54.67;100225.72;1091514;46;20011;-84
2022/07/15 05:09:57;;;;;;;;;;;;;;;17.14;54.52;100223.22;1088505;54;19950;-84
2022/07/15 05:11:01;;;;;;;;;;;;;;;17.12;54.51;100227.94;1088608;54;19970;-86
2022/07/15 05:12:02;;;;;;;;;;;;;;;17.24;54.31;100222.97;1088467;54;19927;-85
2022/07/15 05:13:06;;;;;;;;;;;;;;;17.29;54.15;100221.34;1088549;54;19943;-84
2022/07/15 05:14:10;;;;;;;;;;;;;;;17.30;54.30;100227.63;1088621;54;20027;-86
2022/07/15 05:15:14;;;;;;;;;;;;;;;17.38;54.11;100229.41;1092084;46;20051;-84
2022/07/15 05:16:15;;;;;;;;;;;;;;;17.39;53.88;100231.06;1090483;46;19943;-85
2022/07/15 05:17:19;;;;;;;;;;;;;;;17.49;53.48;100226.22;1088547;54;19933;-85
2022/07/15 05:18:25;;;;;;;;;;;;;;;17.53;53.51;100232.94;1089193;39;20557;-83
2022/07/15 05:19:26;;;;;;;;;;;;;;;17.55;54.21;100228.19;1088284;54;19995;-85
2022/07/15 05:20:30;;;;;;;;;;;;;;;17.60;53.85;100222.22;1088212;54;19949;-84
2022/07/15 05:21:31;;;;;;;;;;;;;;;17.68;53.71;100223.97;1088088;54;19942;-81
2022/07/15 05:22:35;;;;;;;;;;;;;;;17.74;53.63;100225.97;1089436;46;19949;-82
2022/07/15 05:23:36;;;;;;;;;;;;;;;17.78;53.60;100225.38;1088372;54;19938;-80
2022/07/15 05:24:40;;;;;;;;;;;;;;;17.86;53.12;100226.31;1088372;54;19942;-80
2022/07/15 05:25:41;;;;;;;;;;;;;;;17.90;53.41;100224.91;1088359;54;19934;-81
2022/07/15 05:26:44;;;;;;;;;;;;;;;17.89;53.20;100224.06;1088283;54;19943;-79
2022/07/15 05:27:45;;;;;;;;;;;;;;;17.86;53.16;100221.72;1088496;54;19946;-80
2022/07/15 05:28:49;;;;;;;;;;;;;;;17.97;52.85;100225.00;1088532;54;19991;-79
2022/07/15 05:29:53;;;;;;;;;;;;;;;18.02;53.12;100225.28;1088466;54;19942;-78
2022/07/15 05:30:57;;;;;;;;;;;;;;;18.08;52.65;100221.81;1088510;54;19943;-83
2022/07/15 05:31:58;;;;;;;;;;;;;;;18.13;52.72;100221.25;1088315;54;19942;-79
2022/07/15 05:33:02;;;;;;;;;;;;;;;18.17;52.27;100207.16;1088323;54;19995;-78
2022/07/15 05:34:05;;;;;;;;;;;;;;;18.23;52.36;100206.38;1089437;46;19942;-81
2022/07/15 05:35:07;;;;;;;;;;;;;;;18.20;52.49;100214.91;1088406;54;19942;-80
2022/07/15 05:36:13;;;;;;;;;;;;;;;18.27;52.43;100219.53;1091176;46;19939;-79
2022/07/15 05:37:14;;;;;;;;;;;;;;;18.26;52.65;100225.97;1090807;46;19938;-80
2022/07/15 05:38:18;;;;;;;;;;;;;;;18.28;52.28;100222.03;1088421;54;19943;-79
2022/07/15 05:39:19;;;;;;;;;;;;;;;18.29;52.61;100222.91;1093579;46;19946;-81
2022/07/15 05:40:23;;;;;;;;;;;;;;;18.27;52.64;100219.53;1088464;54;19970;-79
2022/07/15 05:41:24;;;;;;;;;;;;;;;18.30;52.69;100221.88;1088421;54;19939;-80
2022/07/15 05:42:28;;;;;;;;;;;;;;;18.32;52.62;100226.06;1089020;46;19979;-77